Time;durP1;ratioP1;P1;durP2;ratioP2;P2;SDS_P1;SDS_P2;PMS_P1;PMS_P2;Temp;Humidity;BMP_temperature;BMP_pressure;BME280_temperature;BME280_humidity;BME280_pressure;Samples;Min_cycle;Max_cycle;Signal;HPM_P1;HPM_P2
2021/12/07 00:00:21;;;;;;;2.17;2.00;;;17.20;51.00;17.90;99576.00;;;;4970517;28;20722;-40
2021/12/07 00:02:47;;;;;;;2.00;1.80;;;17.20;51.30;17.80;99586.00;;;;4970182;28;20618;-41
2021/12/07 00:05:13;;;;;;;1.90;1.80;;;17.20;51.20;17.90;99588.00;;;;4970099;28;20177;-41
2021/12/07 00:07:39;;;;;;;2.03;1.90;;;17.20;50.90;18.00;99587.00;;;;4970072;28;20173;-41
2021/12/07 00:10:06;;;;;;;1.80;1.70;;;17.40;50.80;18.10;99594.00;;;;4969473;28;20205;-41
2021/12/07 00:12:36;;;;;;;1.90;1.80;;;17.60;50.50;18.10;99590.00;;;;4970489;28;20232;-40
2021/12/07 00:15:03;;;;;;;1.77;1.67;;;17.80;50.40;18.20;99596.00;;;;4970665;28;20173;-40
2021/12/07 00:17:30;;;;;;;1.80;1.70;;;18.00;50.70;18.40;99603.00;;;;4970033;28;20173;-41
2021/12/07 00:19:56;;;;;;;1.97;1.87;;;18.30;49.70;18.50;99612.00;;;;4970462;28;20177;-40
2021/12/07 00:22:21;;;;;;;2.00;1.90;;;18.50;49.20;18.60;99611.00;;;;4969932;28;20195;-41
2021/12/07 00:24:47;;;;;;;1.90;1.80;;;18.60;49.10;18.80;99595.00;;;;4970307;28;20210;-41
2021/12/07 00:27:13;;;;;;;1.90;1.80;;;18.70;49.10;18.80;99617.00;;;;4969867;28;20185;-41
2021/12/07 00:29:39;;;;;;;1.80;1.70;;;18.80;49.10;18.90;99616.00;;;;4969675;28;20210;-41
2021/12/07 00:32:29;;;;;;;1.80;1.70;;;18.70;49.20;19.00;99615.00;;;;4969426;28;20207;-41
2021/12/07 00:35:16;;;;;;;2.00;1.80;;;18.80;49.20;19.00;99619.00;;;;4969869;28;20184;-40
2021/12/07 00:37:46;;;;;;;1.67;1.57;;;18.80;49.20;19.00;99613.00;;;;4969782;28;20659;-41
2021/12/07 00:40:13;;;;;;;1.63;1.53;;;18.70;49.20;19.10;99616.00;;;;4969728;28;20709;-41
2021/12/07 00:42:39;;;;;;;1.83;1.73;;;18.70;49.20;19.00;99628.00;;;;4969275;28;20200;-41
2021/12/07 00:45:06;;;;;;;1.90;1.80;;;18.70;49.20;19.10;99619.00;;;;4968644;28;20584;-41
2021/12/07 00:47:31;;;;;;;1.93;1.83;;;18.70;49.20;19.10;99623.00;;;;4968063;28;20238;-40
2021/12/07 00:49:58;;;;;;;1.70;1.60;;;18.60;49.10;19.10;99637.00;;;;4969729;28;20286;-41
2021/12/07 00:52:24;;;;;;;1.70;1.60;;;18.60;49.30;19.10;99565.00;;;;4969152;28;20677;-40
2021/12/07 00:54:49;;;;;;;1.80;1.70;;;18.60;49.30;19.10;99632.00;;;;4969486;28;20283;-41
2021/12/07 00:57:15;;;;;;;1.90;1.80;;;18.60;49.40;19.10;99638.00;;;;4968206;28;20171;-40
2021/12/07 00:59:41;;;;;;;2.00;1.90;;;18.50;49.30;19.00;99650.00;;;;4969419;28;20182;-41
2021/12/07 01:02:07;;;;;;;2.33;1.80;;;18.50;49.50;19.00;99654.00;;;;4969344;28;20192;-40
2021/12/07 01:04:32;;;;;;;1.80;1.70;;;18.40;49.40;19.00;99661.00;;;;4968433;28;20190;-40
2021/12/07 01:07:12;;;;;;;1.80;1.70;;;18.40;49.40;19.00;99660.00;;;;4969238;28;20781;-41
2021/12/07 01:24:38;;;;;;;1.80;1.70;;;18.40;49.50;19.00;99668.00;;;;4969359;28;20682;-39
2021/12/07 01:26:05;;;;;;;1.80;1.70;;;18.10;49.70;18.80;99690.00;;;;4969230;28;20206;-40
2021/12/07 01:28:36;;;;;;;1.60;1.50;;;18.10;49.70;18.70;99699.00;;;;4969317;28;20702;-40
2021/12/07 01:44:25;;;;;;;1.80;1.67;;;17.80;49.60;18.60;99719.00;;;;4968255;28;20153;-40
2021/12/07 01:47:23;;;;;;;1.73;1.63;;;17.80;49.60;18.50;99720.00;;;;4967806;28;20193;-40
2021/12/07 02:00:10;;;;;;;1.70;1.60;;;17.60;49.60;18.30;99732.00;;;;4968648;28;20217;-39
2021/12/07 02:02:35;;;;;;;1.60;1.50;;;17.50;49.60;18.30;99747.00;;;;4967022;28;20221;-39
2021/12/07 02:05:01;;;;;;;1.60;1.50;;;17.50;49.50;18.30;99753.00;;;;4968520;28;20177;-40
2021/12/07 02:07:27;;;;;;;1.53;1.43;;;17.50;49.40;18.20;99751.00;;;;4968102;28;20173;-40
2021/12/07 02:09:56;;;;;;;1.80;1.70;;;17.40;49.40;18.20;99757.00;;;;4968399;28;20596;-39
2021/12/07 02:12:22;;;;;;;1.67;1.57;;;17.40;49.40;18.20;99758.00;;;;4968242;28;20189;-40
2021/12/07 02:14:48;;;;;;;1.70;1.60;;;17.40;49.40;18.20;99768.00;;;;4967350;28;20808;-40
2021/12/07 02:17:17;;;;;;;1.60;1.50;;;17.30;49.40;18.10;99769.00;;;;4968149;28;20169;-40
2021/12/07 02:19:43;;;;;;;1.70;1.60;;;17.30;49.40;18.10;99780.00;;;;4968081;28;20862;-40
2021/12/07 02:22:10;;;;;;;1.50;1.40;;;17.30;49.40;18.10;99788.00;;;;4967824;28;20232;-40
2021/12/07 02:24:36;;;;;;;1.60;1.50;;;17.20;49.40;18.00;99801.00;;;;4968511;28;20188;-40
2021/12/07 02:27:02;;;;;;;1.90;1.80;;;17.20;49.40;18.00;99795.00;;;;4968361;28;20193;-40
2021/12/07 02:29:27;;;;;;;1.93;1.70;;;17.10;49.30;18.00;99808.00;;;;4968405;28;20916;-40
2021/12/07 02:31:54;;;;;;;1.77;1.67;;;17.10;49.40;17.90;99817.00;;;;4970035;28;20317;-40
2021/12/07 02:34:21;;;;;;;1.70;1.60;;;17.10;49.60;17.70;99819.00;;;;4972298;28;20576;-39
2021/12/07 02:36:47;;;;;;;2.00;1.90;;;17.00;49.50;17.90;99828.00;;;;4972262;28;20196;-40
2021/12/07 02:39:13;;;;;;;1.70;1.60;;;17.00;49.60;17.90;99813.00;;;;4971897;28;20181;-39
2021/12/07 02:41:38;;;;;;;1.80;1.70;;;16.90;49.70;17.80;99828.00;;;;4971790;28;20181;-40
2021/12/07 02:44:06;;;;;;;1.70;1.60;;;16.90;49.80;17.80;99832.00;;;;4971589;28;20176;-40
2021/12/07 02:46:38;;;;;;;2.00;1.90;;;16.90;49.80;17.80;99825.00;;;;4971732;28;20560;-39
2021/12/07 02:49:07;;;;;;;1.70;1.60;;;17.10;49.90;17.80;99835.00;;;;4971652;28;20208;-40
2021/12/07 02:51:33;;;;;;;1.80;1.70;;;17.30;49.80;17.90;99842.00;;;;4971535;28;20169;-43
2021/12/07 02:53:58;;;;;;;2.00;1.80;;;17.50;49.60;18.00;99829.00;;;;4972018;28;20165;-40
2021/12/07 02:56:24;;;;;;;1.90;1.80;;;17.70;49.20;18.10;99840.00;;;;4972329;28;20192;-40
2021/12/07 02:58:55;;;;;;;1.80;1.70;;;17.90;49.00;18.20;99835.00;;;;4971740;28;20180;-40
2021/12/07 03:01:26;;;;;;;1.80;1.70;;;18.30;48.80;18.40;99834.00;;;;4971440;28;20169;-40
2021/12/07 03:27:52;;;;;;;2.10;1.90;;;18.70;48.50;18.90;99905.00;;;;4970157;28;20164;-40
2021/12/07 03:30:18;;;;;;;1.80;1.70;;;18.60;48.40;18.90;99895.00;;;;4970866;28;20203;-40
2021/12/07 03:32:44;;;;;;;1.90;1.80;;;18.50;48.50;18.90;99901.00;;;;4970796;28;20696;-40
2021/12/07 03:35:09;;;;;;;2.00;1.80;;;18.60;48.70;18.90;99902.00;;;;4970878;28;20169;-40
2021/12/07 03:37:35;;;;;;;2.20;2.00;;;18.50;48.70;18.90;99902.00;;;;4970775;28;20849;-39
2021/12/07 03:40:01;;;;;;;2.10;2.00;;;18.50;48.90;18.90;99902.00;;;;4970950;28;20180;-40
2021/12/07 03:42:27;;;;;;;1.80;1.67;;;18.40;48.90;18.90;99911.00;;;;4970105;28;20688;-40
2021/12/07 03:44:52;;;;;;;2.07;1.87;;;18.40;48.90;18.90;99911.00;;;;4970753;28;20183;-40
2021/12/07 03:47:18;;;;;;;2.10;1.93;;;18.40;48.90;18.90;99913.00;;;;4970219;28;20217;-40
2021/12/07 03:49:44;;;;;;;2.33;2.10;;;18.30;49.00;18.90;99916.00;;;;4970595;28;20875;-39
2021/12/07 03:52:09;;;;;;;2.23;2.00;;;18.30;49.30;18.90;99928.00;;;;4970478;28;20194;-40
2021/12/07 03:54:35;;;;;;;3.73;2.20;;;18.30;49.30;18.90;99919.00;;;;4970845;28;20174;-39
2021/12/07 03:57:01;;;;;;;6.83;2.70;;;18.30;50.00;18.80;99931.00;;;;4970604;28;20183;-39
2021/12/07 03:59:26;;;;;;;3.33;2.40;;;18.20;51.60;18.80;99936.00;;;;4970046;28;20176;-39
2021/12/07 04:01:52;;;;;;;4.23;2.40;;;18.20;51.30;18.80;99934.00;;;;4970526;28;20625;-40
2021/12/07 04:04:18;;;;;;;4.73;2.50;;;18.20;51.10;18.80;99942.00;;;;4970877;28;20192;-40
2021/12/07 04:06:44;;;;;;;3.33;2.40;;;18.10;50.80;18.70;99942.00;;;;4963468;28;20542;-40
2021/12/07 04:09:10;;;;;;;3.20;2.10;;;18.10;50.80;18.70;99943.00;;;;4967489;28;20212;-40
2021/12/07 04:11:36;;;;;;;4.77;2.50;;;18.00;50.70;18.70;99957.00;;;;4969478;28;20251;-40
2021/12/07 04:14:01;;;;;;;4.23;2.40;;;18.00;50.80;18.70;99954.00;;;;4970283;28;20804;-40
2021/12/07 04:16:27;;;;;;;6.33;2.73;;;17.90;51.10;18.60;99952.00;;;;4969977;28;20176;-40
2021/12/07 04:18:53;;;;;;;5.40;2.70;;;17.90;51.30;18.60;99959.00;;;;4970123;28;20173;-40
2021/12/07 04:21:19;;;;;;;6.27;2.50;;;17.90;51.30;18.60;99971.00;;;;4969718;28;20835;-40
2021/12/07 04:23:44;;;;;;;6.33;2.67;;;17.80;51.30;18.50;99968.00;;;;4969570;28;20195;-40
2021/12/07 04:26:11;;;;;;;8.57;5.20;;;17.80;51.40;18.50;99979.00;;;;4969806;28;20201;-40
2021/12/07 04:28:37;;;;;;;16.60;14.20;;;17.80;51.40;18.50;99968.00;;;;4969230;28;20169;-40
2021/12/07 04:31:03;;;;;;;24.13;21.27;;;17.70;51.40;18.50;99968.00;;;;4969371;28;20177;-40
2021/12/07 04:33:29;;;;;;;32.13;28.73;;;17.70;51.40;18.40;99975.00;;;;4969506;28;20245;-40
2021/12/07 04:35:55;;;;;;;27.87;24.87;;;17.60;51.20;18.40;99979.00;;;;4968973;28;20185;-40
2021/12/07 04:38:21;;;;;;;25.93;22.33;;;17.60;51.30;18.40;99982.00;;;;4969132;28;20205;-40
2021/12/07 04:40:46;;;;;;;24.83;22.13;;;17.60;51.30;18.30;99981.00;;;;4968857;28;20215;-40
2021/12/07 04:43:12;;;;;;;23.50;21.07;;;17.50;51.40;18.30;100001.00;;;;4969200;28;20209;-40
2021/12/07 04:59:14;;;;;;;16.17;9.30;;;17.20;51.20;18.10;100019.00;;;;4946928;29;20632;-40
2021/12/07 05:01:40;;;;;;;14.90;9.30;;;17.20;51.40;18.00;100016.00;;;;4960462;28;20189;-39
2021/12/07 05:04:12;;;;;;;15.30;9.47;;;17.20;51.40;18.00;100025.00;;;;4969097;28;20169;-40
2021/12/07 05:06:45;;;;;;;13.13;9.13;;;17.20;51.40;18.00;100029.00;;;;4968773;28;20161;-40
2021/12/07 05:09:52;;;;;;;11.93;8.07;;;17.20;51.60;17.90;100028.00;;;;4969087;28;20280;-40
2021/12/07 05:14:29;;;;;;;11.13;5.87;;;17.20;52.00;17.80;100034.00;;;;4968619;28;20589;-40
2021/12/07 05:17:18;;;;;;;12.67;5.80;;;17.10;51.80;17.90;100040.00;;;;4968995;28;20169;-40
2021/12/07 05:38:39;;;;;;;12.20;3.97;;;16.50;52.10;17.30;100064.00;;;;4967936;28;20211;-40
2021/12/07 05:41:07;;;;;;;9.90;4.03;;;17.10;51.70;17.50;100069.00;;;;4968133;28;20184;-40
2021/12/07 05:43:34;;;;;;;8.47;3.63;;;17.50;51.20;17.80;100076.00;;;;4967977;28;20197;-40
2021/12/07 05:46:00;;;;;;;10.43;3.87;;;17.80;50.60;18.00;100080.00;;;;4966656;28;20173;-40
2021/12/07 05:48:26;;;;;;;10.53;4.13;;;18.20;50.70;18.20;100083.00;;;;4966713;28;20165;-40
2021/12/07 05:50:51;;;;;;;12.90;4.03;;;18.50;51.90;18.40;100082.00;;;;4967454;28;20193;-40
2021/12/07 05:53:17;;;;;;;15.07;4.07;;;18.60;51.90;18.60;100083.00;;;;4967846;28;20190;-40
2021/12/07 05:55:43;;;;;;;12.23;4.00;;;18.80;52.00;18.70;100094.00;;;;4967834;28;20713;-40
2021/12/07 05:58:09;;;;;;;12.90;3.70;;;18.90;53.00;18.80;100096.00;;;;4968501;28;20209;-40
2021/12/07 06:00:36;;;;;;;12.03;3.67;;;19.00;52.50;18.90;100111.00;;;;4968561;28;20208;-40
2021/12/07 06:03:06;;;;;;;14.43;3.73;;;19.00;52.80;19.00;100115.00;;;;4967597;28;20194;-40
2021/12/07 06:05:32;;;;;;;10.33;3.70;;;19.00;54.10;19.10;100112.00;;;;4967188;28;20183;-40
2021/12/07 06:07:57;;;;;;;14.17;3.90;;;19.10;53.60;19.10;100118.00;;;;4967476;28;20207;-40
2021/12/07 06:10:23;;;;;;;8.40;3.47;;;19.00;53.70;19.20;100129.00;;;;4967578;28;20238;-40
2021/12/07 06:12:49;;;;;;;11.53;3.67;;;19.20;53.40;19.20;100135.00;;;;4968017;28;20322;-40
2021/12/07 06:15:18;;;;;;;13.63;3.60;;;19.10;53.20;19.20;100142.00;;;;4967984;28;20185;-40
2021/12/07 06:17:44;;;;;;;8.27;3.40;;;19.10;53.10;19.30;100140.00;;;;4966859;28;20593;-40
2021/12/07 06:20:10;;;;;;;10.00;3.40;;;19.00;53.00;19.30;100142.00;;;;4968230;28;20263;-40
2021/12/07 06:22:36;;;;;;;7.63;3.13;;;19.00;53.00;19.30;100156.00;;;;4967451;28;20281;-40
2021/12/07 06:25:02;;;;;;;8.47;3.17;;;18.90;52.90;19.30;100153.00;;;;4967698;28;20180;-40
2021/12/07 06:27:28;;;;;;;11.63;3.40;;;18.90;52.90;19.30;100153.00;;;;4966549;28;20175;-40
2021/12/07 06:29:54;;;;;;;6.20;3.00;;;18.80;53.00;19.30;100156.00;;;;4967544;28;20207;-40
2021/12/07 06:32:19;;;;;;;8.87;3.33;;;18.80;53.00;19.30;100151.00;;;;4967305;28;20192;-40
2021/12/07 06:34:45;;;;;;;7.23;3.27;;;18.80;53.00;19.30;100156.00;;;;4967492;28;20439;-40
2021/12/07 06:37:11;;;;;;;7.93;2.87;;;18.80;53.00;19.20;100150.00;;;;4967787;28;20173;-40
2021/12/07 06:39:36;;;;;;;8.87;3.33;;;18.70;52.90;19.20;100164.00;;;;4968563;28;20175;-39
2021/12/07 06:42:03;;;;;;;7.77;3.10;;;18.70;52.90;19.20;100153.00;;;;4967585;28;20450;-39
2021/12/07 06:44:28;;;;;;;7.13;3.03;;;18.60;52.90;19.20;100173.00;;;;4967392;28;20211;-39
2021/12/07 06:46:54;;;;;;;5.93;2.97;;;18.70;53.00;19.20;100165.00;;;;4967594;28;20567;-39
2021/12/07 06:49:20;;;;;;;6.80;2.87;;;18.60;52.90;19.20;100177.00;;;;4967517;28;20199;-39
2021/12/07 06:51:46;;;;;;;6.80;2.90;;;18.50;52.90;19.20;100184.00;;;;4967310;28;20373;-39
2021/12/07 06:54:11;;;;;;;6.67;2.80;;;18.50;53.50;19.10;100166.00;;;;4967491;28;20209;-39
2021/12/07 06:56:37;;;;;;;6.53;2.70;;;18.40;53.00;19.10;100179.00;;;;4967675;28;20177;-40
2021/12/07 06:59:04;;;;;;;4.87;2.80;;;18.40;53.00;19.10;100174.00;;;;4967548;28;20542;-39
2021/12/07 07:01:29;;;;;;;5.93;2.53;;;18.40;53.20;19.10;100150.00;;;;4968325;28;20428;-39
2021/12/07 07:03:55;;;;;;;6.30;2.70;;;18.40;53.20;19.00;100178.00;;;;4968038;28;20204;-39
2021/12/07 07:06:21;;;;;;;5.00;2.50;;;18.30;53.20;19.00;100186.00;;;;4967483;28;20600;-39
2021/12/07 07:08:47;;;;;;;7.03;2.77;;;18.30;53.20;19.00;100170.00;;;;4968230;28;20183;-41
2021/12/07 07:11:12;;;;;;;5.17;2.60;;;18.30;53.20;18.90;100171.00;;;;4967215;28;20655;-39
2021/12/07 07:13:38;;;;;;;4.50;2.67;;;18.20;53.10;18.90;100181.00;;;;4967603;28;20199;-40
2021/12/07 07:16:04;;;;;;;5.37;2.77;;;18.20;53.20;18.90;100185.00;;;;4968064;28;20174;-40
2021/12/07 07:18:30;;;;;;;3.30;2.23;;;18.10;53.10;18.90;100183.00;;;;4969154;28;20177;-39
2021/12/07 07:20:56;;;;;;;4.57;2.60;;;18.10;53.10;18.80;100175.00;;;;4971089;28;20210;-40
2021/12/07 07:23:23;;;;;;;3.97;2.70;;;18.10;53.20;18.80;100075.00;;;;4970945;28;20686;-39
2021/12/07 07:25:49;;;;;;;4.47;2.67;;;18.00;53.20;18.80;100187.00;;;;4971142;28;20180;-39
2021/12/07 07:28:15;;;;;;;4.57;2.67;;;18.00;53.30;18.70;100192.00;;;;4969809;28;20185;-41
2021/12/07 07:30:40;;;;;;;6.07;2.40;;;17.90;53.30;18.70;100176.00;;;;4970523;28;20663;-40
2021/12/07 07:33:06;;;;;;;3.67;2.50;;;17.90;53.30;18.70;100209.00;;;;4970899;28;20204;-40
2021/12/07 07:35:32;;;;;;;4.07;2.40;;;17.90;53.30;18.60;100212.00;;;;4970772;28;20179;-40
2021/12/07 07:37:58;;;;;;;3.83;2.43;;;17.80;53.30;18.60;100212.00;;;;4970788;28;20174;-40
2021/12/07 07:40:23;;;;;;;3.43;2.60;;;17.80;53.40;18.60;100217.00;;;;4970745;28;20235;-39
2021/12/07 07:42:50;;;;;;;3.67;2.40;;;17.80;53.40;18.60;100224.00;;;;4970034;28;20197;-39
2021/12/07 07:45:16;;;;;;;3.20;2.20;;;17.80;53.40;18.50;100217.00;;;;4970561;28;20181;-40
2021/12/07 07:47:42;;;;;;;5.40;2.70;;;17.70;53.40;18.50;100222.00;;;;4970527;28;20454;-41
2021/12/07 07:50:09;;;;;;;3.87;2.60;;;17.70;53.50;18.50;100218.00;;;;4970546;28;20281;-40
2021/12/07 07:52:35;;;;;;;4.10;2.30;;;17.60;53.50;18.40;100217.00;;;;4969889;28;20195;-40
2021/12/07 07:55:01;;;;;;;3.60;2.30;;;17.60;53.50;18.40;100217.00;;;;4970043;28;20177;-40
2021/12/07 07:57:28;;;;;;;4.77;2.40;;;17.60;53.50;18.40;100215.00;;;;4970224;28;20174;-40
2021/12/07 07:59:53;;;;;;;4.40;2.10;;;17.60;53.60;18.40;100216.00;;;;4970317;28;20180;-39
2021/12/07 08:02:19;;;;;;;3.13;2.20;;;17.60;53.60;18.30;100215.00;;;;4969791;28;20200;-40
2021/12/07 08:04:46;;;;;;;5.00;2.50;;;17.50;53.60;18.30;100220.00;;;;4970292;28;20176;-41
2021/12/07 08:07:12;;;;;;;4.43;2.40;;;17.50;53.60;18.30;100227.00;;;;4969713;28;20203;-38
2021/12/07 08:09:38;;;;;;;3.83;2.20;;;17.40;53.50;18.30;100225.00;;;;4970268;28;20315;-40
2021/12/07 08:12:05;;;;;;;4.33;2.20;;;17.40;53.60;18.30;100226.00;;;;4970119;28;20213;-40
2021/12/07 08:14:31;;;;;;;3.77;2.33;;;17.40;53.80;18.20;100241.00;;;;4970362;28;20184;-40
2021/12/07 08:16:57;;;;;;;3.30;2.27;;;17.40;53.70;18.00;100235.00;;;;4970113;28;20177;-39
2021/12/07 08:19:22;;;;;;;4.07;2.67;;;17.30;53.70;18.20;100221.00;;;;4969943;28;20185;-41
2021/12/07 08:21:48;;;;;;;2.80;2.20;;;17.30;53.70;18.20;100219.00;;;;4969484;28;20269;-39
2021/12/07 08:24:14;;;;;;;3.87;2.37;;;17.30;53.80;18.20;100219.00;;;;4969738;28;20180;-41
2021/12/07 08:26:40;;;;;;;3.33;2.30;;;17.30;53.80;18.10;100220.00;;;;4969317;28;20648;-39
2021/12/07 08:29:06;;;;;;;3.37;2.20;;;17.20;53.70;18.10;100225.00;;;;4969447;28;20295;-40
2021/12/07 08:31:32;;;;;;;3.73;2.30;;;17.20;53.70;18.10;100239.00;;;;4968189;28;20279;-40
2021/12/07 08:33:57;;;;;;;4.07;2.30;;;17.20;53.70;18.00;100236.00;;;;4969735;28;20256;-40
2021/12/07 08:36:23;;;;;;;4.03;2.30;;;17.10;53.60;18.00;100226.00;;;;4969355;28;20644;-40
2021/12/07 08:38:50;;;;;;;2.27;1.90;;;17.10;53.70;18.00;100223.00;;;;4969634;28;20205;-41
2021/12/07 08:41:15;;;;;;;3.47;2.40;;;17.10;53.70;18.00;100228.00;;;;4969270;28;20587;-40
2021/12/07 08:43:41;;;;;;;2.47;2.10;;;17.10;53.90;17.90;100234.00;;;;4967978;28;20193;-40
2021/12/07 08:46:12;;;;;;;3.07;2.20;;;17.10;53.70;17.90;100233.00;;;;4967561;28;20575;-40
2021/12/07 08:48:38;;;;;;;2.87;2.00;;;17.00;53.70;17.90;100228.00;;;;4969218;28;20161;-40
2021/12/07 08:51:07;;;;;;;3.10;2.40;;;17.00;53.50;17.90;100234.00;;;;4968850;28;20683;-41
2021/12/07 08:53:34;;;;;;;3.87;2.20;;;17.00;53.60;17.80;100255.00;;;;4969310;28;20196;-41
2021/12/07 09:01:29;;;;;;;2.47;1.93;;;16.90;53.70;17.60;100251.00;;;;4968599;28;20199;-40
2021/12/07 09:03:56;;;;;;;2.37;2.00;;;16.90;53.70;17.70;100248.00;;;;4969195;28;20779;-40
2021/12/07 09:06:22;;;;;;;3.03;2.17;;;16.90;53.70;17.70;100245.00;;;;4967273;28;20177;-40
2021/12/07 09:08:48;;;;;;;3.33;2.20;;;16.80;54.00;17.70;100241.00;;;;4968304;28;20189;-40
2021/12/07 09:11:14;;;;;;;2.60;2.00;;;16.90;53.90;17.70;100250.00;;;;4968564;28;20173;-40
2021/12/07 09:13:40;;;;;;;2.83;2.10;;;16.80;53.70;17.70;100256.00;;;;4968831;28;20201;-40
2021/12/07 09:16:06;;;;;;;2.97;2.20;;;16.80;53.80;17.60;100250.00;;;;4968947;28;20192;-40
2021/12/07 09:18:32;;;;;;;4.33;2.33;;;16.70;53.60;17.60;100239.00;;;;4968999;28;20223;-40
2021/12/07 09:20:58;;;;;;;3.33;2.00;;;16.70;54.00;17.60;100262.00;;;;4967870;28;20181;-40
2021/12/07 09:23:24;;;;;;;4.17;2.30;;;16.70;54.10;17.60;100267.00;;;;4968641;28;20208;-40
2021/12/07 09:25:50;;;;;;;6.20;2.47;;;16.70;54.00;17.60;100253.00;;;;4968633;28;20181;-40
2021/12/07 09:28:16;;;;;;;7.93;2.20;;;16.70;53.90;17.60;100268.00;;;;4968623;28;20173;-40
2021/12/07 09:30:41;;;;;;;5.97;2.20;;;16.70;54.00;17.60;100267.00;;;;4968204;28;20200;-41
2021/12/07 09:33:07;;;;;;;4.57;2.20;;;16.60;53.90;17.50;100271.00;;;;4967511;28;20197;-41
2021/12/07 09:35:34;;;;;;;4.03;2.30;;;16.70;54.00;17.50;100267.00;;;;4966974;28;20304;-41
2021/12/07 09:38:00;;;;;;;4.10;2.00;;;16.60;53.90;17.50;100269.00;;;;4968778;28;20196;-41
2021/12/07 09:40:28;;;;;;;4.20;2.20;;;16.60;53.90;17.50;100273.00;;;;4967840;28;20173;-41
2021/12/07 09:42:55;;;;;;;2.57;2.10;;;16.60;53.90;17.50;100260.00;;;;4967047;28;20200;-41
2021/12/07 09:45:20;;;;;;;4.63;2.30;;;16.50;53.90;17.50;100265.00;;;;4966630;28;20177;-41
2021/12/07 09:47:47;;;;;;;3.00;1.90;;;16.50;53.90;17.40;100266.00;;;;4954143;28;20208;-41
2021/12/07 09:50:16;;;;;;;4.47;2.27;;;16.50;53.90;17.40;100284.00;;;;4960267;28;21083;-41
2021/12/07 09:52:43;;;;;;;2.43;2.07;;;16.40;53.90;17.40;100288.00;;;;4968121;28;20204;-40
2021/12/07 09:55:09;;;;;;;2.83;2.00;;;16.50;53.90;17.40;100280.00;;;;4967764;28;20177;-40
2021/12/07 09:57:35;;;;;;;3.87;2.30;;;16.40;53.90;17.40;100288.00;;;;4968184;28;20655;-40
2021/12/07 10:00:02;;;;;;;8.10;2.10;;;16.50;53.90;17.40;100277.00;;;;4967600;28;20181;-40
2021/12/07 10:02:28;;;;;;;3.50;2.40;;;16.50;54.00;17.30;100281.00;;;;4968365;28;20203;-40
2021/12/07 10:04:53;;;;;;;2.50;1.90;;;16.40;54.20;17.30;100280.00;;;;4967941;28;20181;-40
2021/12/07 10:07:19;;;;;;;4.60;2.10;;;16.40;54.00;17.30;100266.00;;;;4967671;28;20553;-40
2021/12/07 10:09:45;;;;;;;2.63;2.00;;;16.40;54.00;17.30;100265.00;;;;4968076;28;20250;-40
2021/12/07 10:12:11;;;;;;;2.97;2.07;;;16.40;53.90;17.20;100259.00;;;;4967187;28;20295;-41
2021/12/07 10:14:38;;;;;;;2.83;2.07;;;16.30;53.90;17.30;100255.00;;;;4934569;28;20294;-41
2021/12/07 10:17:04;;;;;;;3.40;2.10;;;16.40;54.00;17.20;100250.00;;;;4966392;28;20185;-40
2021/12/07 10:19:34;;;;;;;2.87;1.97;;;16.40;54.20;17.20;100254.00;;;;4967493;28;20639;-40
2021/12/07 10:22:12;;;;;;;3.73;2.17;;;16.30;54.10;17.20;100252.00;;;;4967249;28;20255;-41
2021/12/07 10:24:54;;;;;;;3.30;2.10;;;16.30;54.10;17.20;100243.00;;;;4967422;28;20165;-40
2021/12/07 10:27:34;;;;;;;2.37;1.90;;;16.30;54.20;17.20;100238.00;;;;4967326;28;20666;-40
2021/12/07 10:30:03;;;;;;;3.10;2.27;;;16.30;54.20;17.10;100227.00;;;;4967293;28;20587;-41
2021/12/07 10:32:29;;;;;;;4.93;2.40;;;16.30;54.10;17.20;100228.00;;;;4967197;28;20193;-40
2021/12/07 10:34:55;;;;;;;2.73;2.13;;;16.30;54.20;17.10;100214.00;;;;4965780;28;20255;-39
2021/12/07 10:37:20;;;;;;;3.93;2.20;;;16.30;54.30;17.20;100209.00;;;;4966908;28;20400;-40
2021/12/07 10:39:52;;;;;;;4.97;2.40;;;16.20;54.20;17.10;100201.00;;;;4960695;28;20185;-40
2021/12/07 10:42:20;;;;;;;3.47;2.17;;;16.20;54.20;17.10;100201.00;;;;4947567;28;20197;-40
2021/12/07 10:44:45;;;;;;;3.37;2.30;;;16.20;54.20;17.10;100219.00;;;;4947927;28;20197;-41
2021/12/07 10:47:16;;;;;;;2.73;2.00;;;16.20;54.30;17.10;100216.00;;;;4947318;28;20201;-40
2021/12/07 10:49:46;;;;;;;3.53;2.00;;;16.20;54.10;17.10;100205.00;;;;4948089;28;20209;-40
2021/12/07 10:52:38;;;;;;;2.93;2.10;;;16.20;54.40;17.10;100129.00;;;;4947775;28;20205;-40
2021/12/07 10:55:17;;;;;;;2.53;2.03;;;16.20;54.20;17.00;100204.00;;;;4951848;28;20174;-40
2021/12/07 10:57:57;;;;;;;3.10;2.13;;;16.20;54.20;16.80;100192.00;;;;4951783;28;20368;-40
2021/12/07 11:00:29;;;;;;;2.37;2.17;;;16.20;54.20;17.10;100196.00;;;;4951172;28;20232;-40
2021/12/07 11:03:29;;;;;;;3.17;1.77;;;16.20;54.30;17.00;100199.00;;;;4951333;28;20668;-40
2021/12/07 11:05:55;;;;;;;3.70;2.20;;;16.20;54.40;17.00;100211.00;;;;4951304;29;20173;-40
2021/12/07 11:08:25;;;;;;;4.47;2.17;;;16.20;54.40;17.00;100199.00;;;;4951352;29;20185;-40
2021/12/07 11:10:51;;;;;;;2.10;1.80;;;16.20;54.40;17.00;100187.00;;;;4951647;29;20205;-40
2021/12/07 11:13:21;;;;;;;2.27;1.90;;;16.20;54.40;17.00;100188.00;;;;4951089;29;20221;-40
2021/12/07 11:15:54;;;;;;;2.93;2.10;;;16.20;54.40;17.00;100164.00;;;;4951299;28;20182;-40
2021/12/07 11:18:32;;;;;;;3.47;2.07;;;16.20;54.40;17.00;100172.00;;;;4951349;28;20256;-40
2021/12/07 11:21:04;;;;;;;3.10;2.10;;;16.20;54.40;17.00;100166.00;;;;4951236;28;20181;-41
2021/12/07 11:23:34;;;;;;;3.23;2.07;;;16.20;54.40;17.00;100153.00;;;;4950618;29;20211;-40
2021/12/07 11:31:21;;;;;;;4.13;2.00;;;16.20;54.60;17.00;100141.00;;;;4951076;29;20216;-40
2021/12/07 11:33:48;;;;;;;3.70;2.10;;;16.20;54.70;17.00;100141.00;;;;4951438;28;20236;-40
2021/12/07 11:36:26;;;;;;;2.50;2.00;;;16.20;54.50;17.00;100135.00;;;;4951088;29;20181;-40
2021/12/07 11:38:52;;;;;;;2.57;1.80;;;16.20;54.50;17.00;100134.00;;;;4950872;29;20154;-40
2021/12/07 11:41:25;;;;;;;3.27;2.10;;;16.20;54.60;17.00;100132.00;;;;4950208;29;20184;-41
2021/12/07 11:44:04;;;;;;;3.00;2.10;;;16.20;54.70;17.00;100137.00;;;;4951082;28;20197;-40
2021/12/07 11:46:31;;;;;;;2.77;2.00;;;16.30;54.70;17.00;100141.00;;;;4951329;29;20257;-41
2021/12/07 11:49:09;;;;;;;2.17;1.63;;;16.30;54.70;17.00;100130.00;;;;4950878;29;20764;-39
2021/12/07 11:51:35;;;;;;;2.27;1.90;;;16.20;54.70;17.00;100120.00;;;;4950816;29;20229;-40
2021/12/07 11:54:01;;;;;;;1.90;1.70;;;16.20;54.80;17.00;100117.00;;;;4951072;29;20194;-40
2021/12/07 11:56:27;;;;;;;2.93;2.03;;;16.30;54.90;17.00;100123.00;;;;4949592;29;20166;-40
2021/12/07 11:58:52;;;;;;;3.57;1.90;;;16.30;54.90;17.00;100116.00;;;;4951050;29;20237;-40
2021/12/07 12:01:19;;;;;;;3.70;2.00;;;16.30;54.90;17.00;100102.00;;;;4950976;29;20185;-40
2021/12/07 12:03:44;;;;;;;2.90;1.83;;;16.30;55.00;17.00;100123.00;;;;4949253;28;20237;-40
2021/12/07 12:06:10;;;;;;;9.00;2.77;;;16.30;55.00;17.00;100133.00;;;;4951064;29;20178;-40
2021/12/07 12:08:36;;;;;;;12.17;2.97;;;16.30;55.10;17.00;100112.00;;;;4933707;29;20531;-40
2021/12/07 12:11:10;;;;;;;12.43;3.30;;;16.30;55.70;17.00;100113.00;;;;4917753;29;20194;-40
2021/12/07 12:13:57;;;;;;;19.77;4.07;;;16.40;55.90;17.00;100119.00;;;;4935159;29;20193;-40
2021/12/07 12:16:36;;;;;;;14.50;4.03;;;16.40;56.30;17.00;100111.00;;;;4949048;29;20625;-41
2021/12/07 12:19:59;;;;;;;12.27;3.77;;;16.40;56.60;17.10;100108.00;;;;4934871;29;20173;-41
2021/12/07 12:22:35;;;;;;;12.83;3.90;;;16.40;56.50;17.00;100106.00;;;;4947780;28;20211;-40
2021/12/07 12:25:07;;;;;;;20.37;4.03;;;16.30;56.40;17.00;100102.00;;;;4958956;28;20172;-40
2021/12/07 12:27:34;;;;;;;12.60;4.30;;;16.30;56.10;17.00;100111.00;;;;4968895;28;20193;-40
2021/12/07 12:30:37;;;;;;;13.40;4.33;;;16.30;56.10;17.00;100109.00;;;;4969675;28;20430;-40
2021/12/07 12:33:13;;;;;;;13.90;4.03;;;16.30;55.90;17.00;100092.00;;;;4967162;28;20236;-41
2021/12/07 12:35:42;;;;;;;14.57;4.27;;;16.30;55.90;17.00;100088.00;;;;4969486;28;20171;-41
2021/12/07 12:38:28;;;;;;;15.13;4.37;;;16.30;56.20;17.00;100078.00;;;;4968375;28;20583;-40